sensor_id;sensor_type;location;lat;lon;timestamp;temperature;humidity
54202;DHT22;40108;53.152;5.844;2023-11-18T00:01:21;2.90;97.40
54202;DHT22;40108;53.152;5.844;2023-11-18T00:03:47;2.90;97.40
54202;DHT22;40108;53.152;5.844;2023-11-18T00:06:13;2.90;97.50
54202;DHT22;40108;53.152;5.844;2023-11-18T00:08:39;3.00;97.50
54202;DHT22;40108;53.152;5.844;2023-11-18T00:11:04;2.90;97.50
54202;DHT22;40108;53.152;5.844;2023-11-18T00:13:30;2.90;97.50
54202;DHT22;40108;53.152;5.844;2023-11-18T00:15:56;2.90;97.50
54202;DHT22;40108;53.152;5.844;2023-11-18T00:18:23;2.90;97.50
54202;DHT22;40108;53.152;5.844;2023-11-18T00:20:49;2.90;97.50
54202;DHT22;40108;53.152;5.844;2023-11-18T00:23:17;2.80;97.50
54202;DHT22;40108;53.152;5.844;2023-11-18T00:25:43;2.80;97.50
54202;DHT22;40108;53.152;5.844;2023-11-18T00:28:10;2.80;97.50
54202;DHT22;40108;53.152;5.844;2023-11-18T00:30:37;2.80;97.50
54202;DHT22;40108;53.152;5.844;2023-11-18T00:33:03;2.80;97.50
54202;DHT22;40108;53.152;5.844;2023-11-18T00:35:29;2.80;97.60
54202;DHT22;40108;53.152;5.844;2023-11-18T00:37:58;2.70;97.60
54202;DHT22;40108;53.152;5.844;2023-11-18T00:40:24;2.70;97.60
54202;DHT22;40108;53.152;5.844;2023-11-18T00:42:50;2.80;97.60
54202;DHT22;40108;53.152;5.844;2023-11-18T00:45:15;2.80;97.60
54202;DHT22;40108;53.152;5.844;2023-11-18T00:47:41;2.80;97.60
54202;DHT22;40108;53.152;5.844;2023-11-18T00:50:07;2.80;97.60
54202;DHT22;40108;53.152;5.844;2023-11-18T00:52:36;2.80;97.60
54202;DHT22;40108;53.152;5.844;2023-11-18T00:55:07;2.80;97.60
54202;DHT22;40108;53.152;5.844;2023-11-18T00:57:34;2.70;97.60
54202;DHT22;40108;53.152;5.844;2023-11-18T01:00:00;2.70;97.60
54202;DHT22;40108;53.152;5.844;2023-11-18T01:02:26;2.70;97.60
54202;DHT22;40108;53.152;5.844;2023-11-18T01:04:52;2.70;97.70
54202;DHT22;40108;53.152;5.844;2023-11-18T01:07:17;2.70;97.60
54202;DHT22;40108;53.152;5.844;2023-11-18T01:09:43;2.70;97.70
54202;DHT22;40108;53.152;5.844;2023-11-18T01:12:09;2.70;97.70
54202;DHT22;40108;53.152;5.844;2023-11-18T01:14:38;2.70;97.70
54202;DHT22;40108;53.152;5.844;2023-11-18T01:17:08;2.70;97.80
54202;DHT22;40108;53.152;5.844;2023-11-18T01:19:35;2.70;97.80
54202;DHT22;40108;53.152;5.844;2023-11-18T01:22:01;2.70;97.80
54202;DHT22;40108;53.152;5.844;2023-11-18T01:24:31;2.70;97.80
54202;DHT22;40108;53.152;5.844;2023-11-18T01:26:57;2.80;97.80
54202;DHT22;40108;53.152;5.844;2023-11-18T01:29:24;2.70;97.80
54202;DHT22;40108;53.152;5.844;2023-11-18T01:31:50;2.70;97.80
54202;DHT22;40108;53.152;5.844;2023-11-18T01:34:16;2.70;97.90
54202;DHT22;40108;53.152;5.844;2023-11-18T01:36:42;2.70;97.90
54202;DHT22;40108;53.152;5.844;2023-11-18T01:39:09;2.70;97.90
54202;DHT22;40108;53.152;5.844;2023-11-18T01:41:35;2.70;97.90
54202;DHT22;40108;53.152;5.844;2023-11-18T01:44:01;2.70;97.90
54202;DHT22;40108;53.152;5.844;2023-11-18T01:46:27;2.80;98.00
54202;DHT22;40108;53.152;5.844;2023-11-18T01:48:55;2.80;98.00
54202;DHT22;40108;53.152;5.844;2023-11-18T01:51:21;2.80;98.00
54202;DHT22;40108;53.152;5.844;2023-11-18T01:53:49;2.80;98.00
54202;DHT22;40108;53.152;5.844;2023-11-18T01:56:15;2.80;98.00
54202;DHT22;40108;53.152;5.844;2023-11-18T01:58:41;2.90;98.00
54202;DHT22;40108;53.152;5.844;2023-11-18T02:01:07;2.80;98.00
54202;DHT22;40108;53.152;5.844;2023-11-18T02:03:36;2.80;98.00
54202;DHT22;40108;53.152;5.844;2023-11-18T02:06:04;2.90;98.10
54202;DHT22;40108;53.152;5.844;2023-11-18T02:08:32;2.90;98.00
54202;DHT22;40108;53.152;5.844;2023-11-18T02:11:16;2.80;98.00
54202;DHT22;40108;53.152;5.844;2023-11-18T02:13:44;2.80;98.00
54202;DHT22;40108;53.152;5.844;2023-11-18T02:16:14;2.80;98.00
54202;DHT22;40108;53.152;5.844;2023-11-18T02:18:42;2.90;98.10
54202;DHT22;40108;53.152;5.844;2023-11-18T02:21:09;2.80;98.10
54202;DHT22;40108;53.152;5.844;2023-11-18T02:23:36;2.90;98.10
54202;DHT22;40108;53.152;5.844;2023-11-18T02:26:02;2.90;98.20
54202;DHT22;40108;53.152;5.844;2023-11-18T02:28:28;2.90;98.20
54202;DHT22;40108;53.152;5.844;2023-11-18T02:31:05;2.90;98.20
54202;DHT22;40108;53.152;5.844;2023-11-18T02:33:36;2.90;98.20
54202;DHT22;40108;53.152;5.844;2023-11-18T02:36:10;2.90;98.20
54202;DHT22;40108;53.152;5.844;2023-11-18T02:38:44;3.00;98.20
54202;DHT22;40108;53.152;5.844;2023-11-18T02:41:13;2.90;98.20
54202;DHT22;40108;53.152;5.844;2023-11-18T02:43:40;3.00;98.30
54202;DHT22;40108;53.152;5.844;2023-11-18T02:46:07;3.00;98.30
54202;DHT22;40108;53.152;5.844;2023-11-18T02:48:34;3.00;98.30
54202;DHT22;40108;53.152;5.844;2023-11-18T02:51:01;3.00;98.30
54202;DHT22;40108;53.152;5.844;2023-11-18T02:53:27;3.10;98.30
54202;DHT22;40108;53.152;5.844;2023-11-18T02:55:53;3.10;98.40
54202;DHT22;40108;53.152;5.844;2023-11-18T02:58:20;3.20;98.40
54202;DHT22;40108;53.152;5.844;2023-11-18T03:00:46;3.20;98.40
54202;DHT22;40108;53.152;5.844;2023-11-18T03:03:12;3.20;98.40
54202;DHT22;40108;53.152;5.844;2023-11-18T03:05:38;3.20;98.40
54202;DHT22;40108;53.152;5.844;2023-11-18T03:08:04;3.30;98.50
54202;DHT22;40108;53.152;5.844;2023-11-18T03:10:34;3.40;98.50
54202;DHT22;40108;53.152;5.844;2023-11-18T03:13:01;3.50;98.50
54202;DHT22;40108;53.152;5.844;2023-11-18T03:15:27;3.50;98.50
54202;DHT22;40108;53.152;5.844;2023-11-18T03:17:54;3.60;98.50
54202;DHT22;40108;53.152;5.844;2023-11-18T03:20:21;3.60;98.60
54202;DHT22;40108;53.152;5.844;2023-11-18T03:22:50;3.70;98.60
54202;DHT22;40108;53.152;5.844;2023-11-18T03:25:17;3.70;98.60
54202;DHT22;40108;53.152;5.844;2023-11-18T03:27:44;3.70;98.60
54202;DHT22;40108;53.152;5.844;2023-11-18T03:30:10;3.70;98.60
54202;DHT22;40108;53.152;5.844;2023-11-18T03:32:37;3.80;98.60
54202;DHT22;40108;53.152;5.844;2023-11-18T03:35:05;3.80;98.60
54202;DHT22;40108;53.152;5.844;2023-11-18T03:37:40;3.80;98.60
54202;DHT22;40108;53.152;5.844;2023-11-18T03:40:10;3.80;98.60
54202;DHT22;40108;53.152;5.844;2023-11-18T03:42:37;3.80;98.60
54202;DHT22;40108;53.152;5.844;2023-11-18T03:45:03;3.80;98.60
54202;DHT22;40108;53.152;5.844;2023-11-18T03:47:29;3.80;98.60
54202;DHT22;40108;53.152;5.844;2023-11-18T03:49:55;3.90;98.60
54202;DHT22;40108;53.152;5.844;2023-11-18T03:52:21;3.90;98.60
54202;DHT22;40108;53.152;5.844;2023-11-18T03:54:47;3.90;98.60
54202;DHT22;40108;53.152;5.844;2023-11-18T03:57:12;3.90;98.70
54202;DHT22;40108;53.152;5.844;2023-11-18T03:59:41;3.80;98.60
54202;DHT22;40108;53.152;5.844;2023-11-18T04:02:07;3.80;98.60
54202;DHT22;40108;53.152;5.844;2023-11-18T04:04:33;3.90;98.70
54202;DHT22;40108;53.152;5.844;2023-11-18T04:06:59;3.90;98.70
54202;DHT22;40108;53.152;5.844;2023-11-18T04:09:27;3.90;98.70
54202;DHT22;40108;53.152;5.844;2023-11-18T04:11:52;3.90;98.70
54202;DHT22;40108;53.152;5.844;2023-11-18T04:14:18;3.90;98.70
54202;DHT22;40108;53.152;5.844;2023-11-18T04:16:47;4.00;98.70
54202;DHT22;40108;53.152;5.844;2023-11-18T04:19:13;4.00;98.70
54202;DHT22;40108;53.152;5.844;2023-11-18T04:21:39;4.00;98.70
54202;DHT22;40108;53.152;5.844;2023-11-18T04:24:05;3.90;98.70
54202;DHT22;40108;53.152;5.844;2023-11-18T04:26:31;3.90;98.70
54202;DHT22;40108;53.152;5.844;2023-11-18T04:28:57;3.90;98.70
54202;DHT22;40108;53.152;5.844;2023-11-18T04:31:24;3.80;98.70
54202;DHT22;40108;53.152;5.844;2023-11-18T04:33:50;3.80;98.70
54202;DHT22;40108;53.152;5.844;2023-11-18T04:36:15;3.90;98.80
54202;DHT22;40108;53.152;5.844;2023-11-18T04:38:42;3.80;98.70
54202;DHT22;40108;53.152;5.844;2023-11-18T04:41:09;3.80;98.80
54202;DHT22;40108;53.152;5.844;2023-11-18T04:43:35;3.80;98.80
54202;DHT22;40108;53.152;5.844;2023-11-18T04:46:00;3.80;98.80
54202;DHT22;40108;53.152;5.844;2023-11-18T04:48:26;3.90;98.80
54202;DHT22;40108;53.152;5.844;2023-11-18T04:50:52;3.90;98.80
54202;DHT22;40108;53.152;5.844;2023-11-18T04:53:17;3.90;98.80
54202;DHT22;40108;53.152;5.844;2023-11-18T04:55:43;3.90;98.80
54202;DHT22;40108;53.152;5.844;2023-11-18T04:58:09;3.90;98.80
54202;DHT22;40108;53.152;5.844;2023-11-18T05:00:38;3.90;98.80
54202;DHT22;40108;53.152;5.844;2023-11-18T05:03:07;3.90;98.80
54202;DHT22;40108;53.152;5.844;2023-11-18T05:05:36;3.90;98.80
54202;DHT22;40108;53.152;5.844;2023-11-18T05:08:07;4.00;98.80
54202;DHT22;40108;53.152;5.844;2023-11-18T05:10:37;3.90;98.80
54202;DHT22;40108;53.152;5.844;2023-11-18T05:13:03;3.90;98.80
54202;DHT22;40108;53.152;5.844;2023-11-18T05:15:29;3.90;98.90
54202;DHT22;40108;53.152;5.844;2023-11-18T05:17:56;4.00;98.90
54202;DHT22;40108;53.152;5.844;2023-11-18T05:20:23;4.10;98.90
54202;DHT22;40108;53.152;5.844;2023-11-18T05:22:49;4.10;98.90
54202;DHT22;40108;53.152;5.844;2023-11-18T05:25:15;4.10;98.90
54202;DHT22;40108;53.152;5.844;2023-11-18T05:27:40;4.10;98.90
54202;DHT22;40108;53.152;5.844;2023-11-18T05:30:07;4.10;98.90
54202;DHT22;40108;53.152;5.844;2023-11-18T05:32:34;4.10;98.90
54202;DHT22;40108;53.152;5.844;2023-11-18T05:34:59;4.20;98.90
54202;DHT22;40108;53.152;5.844;2023-11-18T05:37:26;4.20;99.00
54202;DHT22;40108;53.152;5.844;2023-11-18T05:39:54;4.20;99.00
54202;DHT22;40108;53.152;5.844;2023-11-18T05:42:31;4.20;99.00
54202;DHT22;40108;53.152;5.844;2023-11-18T05:44:57;4.20;99.00
54202;DHT22;40108;53.152;5.844;2023-11-18T05:47:26;4.20;98.90
54202;DHT22;40108;53.152;5.844;2023-11-18T05:49:53;4.20;99.00
54202;DHT22;40108;53.152;5.844;2023-11-18T05:52:19;4.20;99.00
54202;DHT22;40108;53.152;5.844;2023-11-18T05:54:48;4.20;99.00
54202;DHT22;40108;53.152;5.844;2023-11-18T05:57:15;4.20;99.00
54202;DHT22;40108;53.152;5.844;2023-11-18T05:59:42;4.20;99.00
54202;DHT22;40108;53.152;5.844;2023-11-18T06:02:08;4.20;99.00
54202;DHT22;40108;53.152;5.844;2023-11-18T06:04:34;4.30;99.00
54202;DHT22;40108;53.152;5.844;2023-11-18T06:07:00;4.20;99.00
54202;DHT22;40108;53.152;5.844;2023-11-18T06:09:28;4.30;99.00
54202;DHT22;40108;53.152;5.844;2023-11-18T06:11:54;4.30;99.10
54202;DHT22;40108;53.152;5.844;2023-11-18T06:14:20;4.30;99.10
54202;DHT22;40108;53.152;5.844;2023-11-18T06:16:49;4.40;99.10
54202;DHT22;40108;53.152;5.844;2023-11-18T06:19:16;4.30;99.10
54202;DHT22;40108;53.152;5.844;2023-11-18T06:21:41;4.40;99.10
54202;DHT22;40108;53.152;5.844;2023-11-18T06:24:07;4.40;99.10
54202;DHT22;40108;53.152;5.844;2023-11-18T06:26:36;4.40;99.10
54202;DHT22;40108;53.152;5.844;2023-11-18T06:29:02;4.50;99.10
54202;DHT22;40108;53.152;5.844;2023-11-18T06:31:29;4.50;99.10
54202;DHT22;40108;53.152;5.844;2023-11-18T06:33:55;4.50;99.10
54202;DHT22;40108;53.152;5.844;2023-11-18T06:36:22;4.50;99.10
54202;DHT22;40108;53.152;5.844;2023-11-18T06:38:52;4.50;99.10
54202;DHT22;40108;53.152;5.844;2023-11-18T06:41:20;4.50;99.10
54202;DHT22;40108;53.152;5.844;2023-11-18T06:43:49;4.60;99.20
54202;DHT22;40108;53.152;5.844;2023-11-18T06:46:27;4.60;99.20
54202;DHT22;40108;53.152;5.844;2023-11-18T06:48:55;4.50;99.10
54202;DHT22;40108;53.152;5.844;2023-11-18T06:51:25;4.60;99.20
54202;DHT22;40108;53.152;5.844;2023-11-18T06:53:56;4.60;99.20
54202;DHT22;40108;53.152;5.844;2023-11-18T06:56:26;4.60;99.20
54202;DHT22;40108;53.152;5.844;2023-11-18T06:58:52;4.60;99.20
54202;DHT22;40108;53.152;5.844;2023-11-18T07:01:17;4.60;99.10
54202;DHT22;40108;53.152;5.844;2023-11-18T07:03:47;4.60;99.20
54202;DHT22;40108;53.152;5.844;2023-11-18T07:06:19;4.60;99.20
54202;DHT22;40108;53.152;5.844;2023-11-18T07:08:49;4.60;99.20
54202;DHT22;40108;53.152;5.844;2023-11-18T07:11:15;4.60;99.20
54202;DHT22;40108;53.152;5.844;2023-11-18T07:13:42;4.60;99.20
54202;DHT22;40108;53.152;5.844;2023-11-18T07:16:08;4.70;99.20
54202;DHT22;40108;53.152;5.844;2023-11-18T07:18:41;4.70;99.20
54202;DHT22;40108;53.152;5.844;2023-11-18T07:21:09;4.70;99.20
54202;DHT22;40108;53.152;5.844;2023-11-18T07:23:35;4.70;99.20
54202;DHT22;40108;53.152;5.844;2023-11-18T07:26:02;4.70;99.20
54202;DHT22;40108;53.152;5.844;2023-11-18T07:28:31;4.70;99.20
54202;DHT22;40108;53.152;5.844;2023-11-18T07:30:57;4.70;99.20
54202;DHT22;40108;53.152;5.844;2023-11-18T07:33:23;4.70;99.20
54202;DHT22;40108;53.152;5.844;2023-11-18T07:35:49;4.70;99.20
54202;DHT22;40108;53.152;5.844;2023-11-18T07:38:16;4.70;99.20
54202;DHT22;40108;53.152;5.844;2023-11-18T07:40:42;4.70;99.20
54202;DHT22;40108;53.152;5.844;2023-11-18T07:43:11;4.70;99.20
54202;DHT22;40108;53.152;5.844;2023-11-18T07:45:38;4.70;99.20
54202;DHT22;40108;53.152;5.844;2023-11-18T07:50:36;4.80;99.20
54202;DHT22;40108;53.152;5.844;2023-11-18T07:53:02;4.80;99.20
54202;DHT22;40108;53.152;5.844;2023-11-18T07:55:28;4.80;99.20
54202;DHT22;40108;53.152;5.844;2023-11-18T07:57:55;4.90;99.20
54202;DHT22;40108;53.152;5.844;2023-11-18T08:00:20;4.90;99.20
54202;DHT22;40108;53.152;5.844;2023-11-18T08:02:46;4.90;99.20
54202;DHT22;40108;53.152;5.844;2023-11-18T08:05:12;5.00;99.20
54202;DHT22;40108;53.152;5.844;2023-11-18T08:07:41;5.00;99.20
54202;DHT22;40108;53.152;5.844;2023-11-18T08:10:07;5.00;99.20
54202;DHT22;40108;53.152;5.844;2023-11-18T08:12:38;5.00;99.20
54202;DHT22;40108;53.152;5.844;2023-11-18T08:15:05;5.10;99.20
54202;DHT22;40108;53.152;5.844;2023-11-18T08:17:32;5.10;99.20
54202;DHT22;40108;53.152;5.844;2023-11-18T08:19:59;5.10;99.20
54202;DHT22;40108;53.152;5.844;2023-11-18T08:22:25;5.20;99.20
54202;DHT22;40108;53.152;5.844;2023-11-18T08:24:51;5.10;99.20
54202;DHT22;40108;53.152;5.844;2023-11-18T08:27:17;5.20;99.20
54202;DHT22;40108;53.152;5.844;2023-11-18T08:29:43;5.20;99.20
54202;DHT22;40108;53.152;5.844;2023-11-18T08:32:09;5.20;99.20
54202;DHT22;40108;53.152;5.844;2023-11-18T08:34:35;5.20;99.20
54202;DHT22;40108;53.152;5.844;2023-11-18T08:37:04;5.20;99.20
54202;DHT22;40108;53.152;5.844;2023-11-18T08:39:30;5.20;99.20
54202;DHT22;40108;53.152;5.844;2023-11-18T08:41:56;5.20;99.20
54202;DHT22;40108;53.152;5.844;2023-11-18T08:44:22;5.20;99.20
54202;DHT22;40108;53.152;5.844;2023-11-18T08:46:50;5.20;99.20
54202;DHT22;40108;53.152;5.844;2023-11-18T08:49:18;5.30;99.20
54202;DHT22;40108;53.152;5.844;2023-11-18T08:51:50;5.30;99.20
54202;DHT22;40108;53.152;5.844;2023-11-18T08:54:22;5.30;99.20
54202;DHT22;40108;53.152;5.844;2023-11-18T08:56:54;5.30;99.20
54202;DHT22;40108;53.152;5.844;2023-11-18T08:59:20;5.40;99.20
54202;DHT22;40108;53.152;5.844;2023-11-18T09:01:54;5.40;99.20
54202;DHT22;40108;53.152;5.844;2023-11-18T09:04:27;5.40;99.20
54202;DHT22;40108;53.152;5.844;2023-11-18T09:06:53;5.40;99.10
54202;DHT22;40108;53.152;5.844;2023-11-18T09:09:25;5.40;99.20
54202;DHT22;40108;53.152;5.844;2023-11-18T09:11:54;5.40;99.10
54202;DHT22;40108;53.152;5.844;2023-11-18T09:14:22;5.50;99.10
54202;DHT22;40108;53.152;5.844;2023-11-18T09:16:50;5.50;99.10
54202;DHT22;40108;53.152;5.844;2023-11-18T09:19:16;5.50;99.10
54202;DHT22;40108;53.152;5.844;2023-11-18T09:21:45;5.60;99.10
54202;DHT22;40108;53.152;5.844;2023-11-18T09:24:11;5.60;99.10
54202;DHT22;40108;53.152;5.844;2023-11-18T09:26:39;5.60;99.10
54202;DHT22;40108;53.152;5.844;2023-11-18T09:29:08;5.60;99.00
54202;DHT22;40108;53.152;5.844;2023-11-18T09:31:35;5.60;99.00
54202;DHT22;40108;53.152;5.844;2023-11-18T09:34:01;5.60;99.00
54202;DHT22;40108;53.152;5.844;2023-11-18T09:36:32;5.60;99.00
54202;DHT22;40108;53.152;5.844;2023-11-18T09:38:59;5.60;99.00
54202;DHT22;40108;53.152;5.844;2023-11-18T09:41:25;5.70;99.00
54202;DHT22;40108;53.152;5.844;2023-11-18T09:43:53;5.60;98.90
54202;DHT22;40108;53.152;5.844;2023-11-18T09:46:29;5.70;98.90
54202;DHT22;40108;53.152;5.844;2023-11-18T09:51:57;5.70;98.90
54202;DHT22;40108;53.152;5.844;2023-11-18T09:54:55;5.70;98.80
54202;DHT22;40108;53.152;5.844;2023-11-18T09:57:40;5.70;98.80
54202;DHT22;40108;53.152;5.844;2023-11-18T10:00:15;5.70;98.80
54202;DHT22;40108;53.152;5.844;2023-11-18T10:02:53;5.70;98.80
54202;DHT22;40108;53.152;5.844;2023-11-18T10:05:21;5.70;98.80
54202;DHT22;40108;53.152;5.844;2023-11-18T10:07:52;5.70;98.80
54202;DHT22;40108;53.152;5.844;2023-11-18T10:10:21;5.70;98.70
54202;DHT22;40108;53.152;5.844;2023-11-18T10:12:47;5.70;98.70
54202;DHT22;40108;53.152;5.844;2023-11-18T10:15:23;5.70;98.70
54202;DHT22;40108;53.152;5.844;2023-11-18T10:17:51;5.70;98.60
54202;DHT22;40108;53.152;5.844;2023-11-18T10:20:44;5.70;98.60
54202;DHT22;40108;53.152;5.844;2023-11-18T10:23:10;5.70;98.50
54202;DHT22;40108;53.152;5.844;2023-11-18T10:25:46;5.70;98.50
54202;DHT22;40108;53.152;5.844;2023-11-18T10:28:30;5.70;98.40
54202;DHT22;40108;53.152;5.844;2023-11-18T10:31:00;5.70;98.40
54202;DHT22;40108;53.152;5.844;2023-11-18T10:33:34;5.70;98.40
54202;DHT22;40108;53.152;5.844;2023-11-18T10:36:01;5.70;98.40
54202;DHT22;40108;53.152;5.844;2023-11-18T10:38:31;5.80;98.40
54202;DHT22;40108;53.152;5.844;2023-11-18T10:40:58;5.80;98.40
54202;DHT22;40108;53.152;5.844;2023-11-18T10:43:26;5.80;98.40
54202;DHT22;40108;53.152;5.844;2023-11-18T10:46:11;5.90;98.30
54202;DHT22;40108;53.152;5.844;2023-11-18T10:48:47;5.90;98.30
54202;DHT22;40108;53.152;5.844;2023-11-18T10:51:17;5.80;98.20
54202;DHT22;40108;53.152;5.844;2023-11-18T10:53:53;5.80;98.20
54202;DHT22;40108;53.152;5.844;2023-11-18T10:56:20;5.90;98.20
54202;DHT22;40108;53.152;5.844;2023-11-18T10:58:52;5.90;98.10
54202;DHT22;40108;53.152;5.844;2023-11-18T11:01:34;5.80;98.20
54202;DHT22;40108;53.152;5.844;2023-11-18T11:04:04;5.80;98.20
54202;DHT22;40108;53.152;5.844;2023-11-18T11:06:32;5.90;98.20
54202;DHT22;40108;53.152;5.844;2023-11-18T11:08:58;5.80;98.10
54202;DHT22;40108;53.152;5.844;2023-11-18T11:11:29;5.80;98.10
54202;DHT22;40108;53.152;5.844;2023-11-18T11:14:03;5.80;98.10
54202;DHT22;40108;53.152;5.844;2023-11-18T11:16:39;5.80;98.10
54202;DHT22;40108;53.152;5.844;2023-11-18T11:19:16;5.90;98.10
54202;DHT22;40108;53.152;5.844;2023-11-18T11:21:55;5.80;98.10
54202;DHT22;40108;53.152;5.844;2023-11-18T11:24:40;5.80;98.00
54202;DHT22;40108;53.152;5.844;2023-11-18T11:30:29;5.80;98.10
54202;DHT22;40108;53.152;5.844;2023-11-18T11:33:36;5.80;98.10
54202;DHT22;40108;53.152;5.844;2023-11-18T11:36:11;5.80;98.10
54202;DHT22;40108;53.152;5.844;2023-11-18T11:38:37;5.80;98.10
54202;DHT22;40108;53.152;5.844;2023-11-18T11:41:07;5.80;98.10
54202;DHT22;40108;53.152;5.844;2023-11-18T11:43:37;5.80;98.20
54202;DHT22;40108;53.152;5.844;2023-11-18T11:46:06;5.80;98.20
54202;DHT22;40108;53.152;5.844;2023-11-18T11:48:38;5.80;98.20
54202;DHT22;40108;53.152;5.844;2023-11-18T11:51:24;5.80;98.20
54202;DHT22;40108;53.152;5.844;2023-11-18T11:54:10;5.80;98.20
54202;DHT22;40108;53.152;5.844;2023-11-18T11:56:48;5.80;98.20
54202;DHT22;40108;53.152;5.844;2023-11-18T12:02:15;5.80;98.30
54202;DHT22;40108;53.152;5.844;2023-11-18T12:04:49;5.80;98.30
54202;DHT22;40108;53.152;5.844;2023-11-18T12:07:23;5.80;98.30
54202;DHT22;40108;53.152;5.844;2023-11-18T12:10:01;5.80;98.30
54202;DHT22;40108;53.152;5.844;2023-11-18T12:12:32;5.80;98.30
54202;DHT22;40108;53.152;5.844;2023-11-18T12:14:59;5.80;98.30
54202;DHT22;40108;53.152;5.844;2023-11-18T12:20:41;5.80;98.30
54202;DHT22;40108;53.152;5.844;2023-11-18T12:23:10;5.80;98.30
54202;DHT22;40108;53.152;5.844;2023-11-18T12:25:46;5.80;98.30
54202;DHT22;40108;53.152;5.844;2023-11-18T12:28:20;5.80;98.30
54202;DHT22;40108;53.152;5.844;2023-11-18T12:30:47;5.70;98.30
54202;DHT22;40108;53.152;5.844;2023-11-18T12:33:51;5.70;98.30
54202;DHT22;40108;53.152;5.844;2023-11-18T12:39:26;5.70;98.30
54202;DHT22;40108;53.152;5.844;2023-11-18T12:47:29;5.70;98.40
54202;DHT22;40108;53.152;5.844;2023-11-18T12:49:58;5.70;98.40
54202;DHT22;40108;53.152;5.844;2023-11-18T12:52:26;5.70;98.40
54202;DHT22;40108;53.152;5.844;2023-11-18T12:54:53;5.70;98.40
54202;DHT22;40108;53.152;5.844;2023-11-18T12:57:27;5.70;98.40
54202;DHT22;40108;53.152;5.844;2023-11-18T12:59:57;5.70;98.50
54202;DHT22;40108;53.152;5.844;2023-11-18T13:02:22;5.70;98.50
54202;DHT22;40108;53.152;5.844;2023-11-18T13:04:51;5.70;98.50
54202;DHT22;40108;53.152;5.844;2023-11-18T13:07:19;5.70;98.50
54202;DHT22;40108;53.152;5.844;2023-11-18T13:09:47;5.80;98.50
54202;DHT22;40108;53.152;5.844;2023-11-18T13:12:14;5.80;98.50
54202;DHT22;40108;53.152;5.844;2023-11-18T13:14:45;5.80;98.50
54202;DHT22;40108;53.152;5.844;2023-11-18T13:17:12;5.80;98.50
54202;DHT22;40108;53.152;5.844;2023-11-18T13:19:43;5.80;98.50
54202;DHT22;40108;53.152;5.844;2023-11-18T13:22:10;5.80;98.50
54202;DHT22;40108;53.152;5.844;2023-11-18T13:24:41;5.80;98.50
54202;DHT22;40108;53.152;5.844;2023-11-18T13:27:10;5.80;98.50
54202;DHT22;40108;53.152;5.844;2023-11-18T13:29:38;5.80;98.50
54202;DHT22;40108;53.152;5.844;2023-11-18T13:32:10;5.90;98.60
54202;DHT22;40108;53.152;5.844;2023-11-18T13:34:36;5.90;98.60
54202;DHT22;40108;53.152;5.844;2023-11-18T13:37:04;5.90;98.60
54202;DHT22;40108;53.152;5.844;2023-11-18T13:39:31;5.90;98.60
54202;DHT22;40108;53.152;5.844;2023-11-18T13:41:57;5.90;98.60
54202;DHT22;40108;53.152;5.844;2023-11-18T13:44:36;6.00;98.60
54202;DHT22;40108;53.152;5.844;2023-11-18T13:47:05;6.00;98.60
54202;DHT22;40108;53.152;5.844;2023-11-18T13:49:32;6.00;98.60
54202;DHT22;40108;53.152;5.844;2023-11-18T13:52:00;6.00;98.60
54202;DHT22;40108;53.152;5.844;2023-11-18T13:54:30;6.00;98.70
54202;DHT22;40108;53.152;5.844;2023-11-18T13:56:58;6.00;98.60
54202;DHT22;40108;53.152;5.844;2023-11-18T13:59:25;6.00;98.60
54202;DHT22;40108;53.152;5.844;2023-11-18T14:01:55;6.00;98.70
54202;DHT22;40108;53.152;5.844;2023-11-18T14:04:26;6.00;98.70
54202;DHT22;40108;53.152;5.844;2023-11-18T14:06:53;6.00;98.70
54202;DHT22;40108;53.152;5.844;2023-11-18T14:09:22;6.00;98.70
54202;DHT22;40108;53.152;5.844;2023-11-18T14:11:51;6.10;98.70
54202;DHT22;40108;53.152;5.844;2023-11-18T14:14:17;6.10;98.70
54202;DHT22;40108;53.152;5.844;2023-11-18T14:16:43;6.10;98.70
54202;DHT22;40108;53.152;5.844;2023-11-18T14:19:09;6.10;98.80
54202;DHT22;40108;53.152;5.844;2023-11-18T14:21:36;6.10;98.80
54202;DHT22;40108;53.152;5.844;2023-11-18T14:24:02;6.10;98.80
54202;DHT22;40108;53.152;5.844;2023-11-18T14:26:29;6.10;98.80
54202;DHT22;40108;53.152;5.844;2023-11-18T14:28:56;6.20;98.80
54202;DHT22;40108;53.152;5.844;2023-11-18T14:31:24;6.20;98.80
54202;DHT22;40108;53.152;5.844;2023-11-18T14:33:50;6.20;98.80
54202;DHT22;40108;53.152;5.844;2023-11-18T14:36:17;6.20;98.90
54202;DHT22;40108;53.152;5.844;2023-11-18T14:38:44;6.20;98.90
54202;DHT22;40108;53.152;5.844;2023-11-18T14:41:10;6.20;98.90
54202;DHT22;40108;53.152;5.844;2023-11-18T14:43:36;6.20;98.90
54202;DHT22;40108;53.152;5.844;2023-11-18T14:46:02;6.20;98.90
54202;DHT22;40108;53.152;5.844;2023-11-18T14:48:29;6.20;98.90
54202;DHT22;40108;53.152;5.844;2023-11-18T14:50:55;6.20;98.90
54202;DHT22;40108;53.152;5.844;2023-11-18T14:53:22;6.20;99.00
54202;DHT22;40108;53.152;5.844;2023-11-18T14:55:48;6.30;99.00
54202;DHT22;40108;53.152;5.844;2023-11-18T14:58:14;6.30;99.00
54202;DHT22;40108;53.152;5.844;2023-11-18T15:00:40;6.30;99.00
54202;DHT22;40108;53.152;5.844;2023-11-18T15:03:08;6.30;99.00
54202;DHT22;40108;53.152;5.844;2023-11-18T15:05:33;6.30;99.00
54202;DHT22;40108;53.152;5.844;2023-11-18T15:07:59;6.30;99.00
54202;DHT22;40108;53.152;5.844;2023-11-18T15:10:27;6.30;99.00
54202;DHT22;40108;53.152;5.844;2023-11-18T15:12:58;6.30;99.00
54202;DHT22;40108;53.152;5.844;2023-11-18T15:15:25;6.40;99.00
54202;DHT22;40108;53.152;5.844;2023-11-18T15:17:58;6.30;99.10
54202;DHT22;40108;53.152;5.844;2023-11-18T15:20:24;6.40;99.10
54202;DHT22;40108;53.152;5.844;2023-11-18T15:22:51;6.40;99.10
54202;DHT22;40108;53.152;5.844;2023-11-18T15:25:17;6.40;99.10
54202;DHT22;40108;53.152;5.844;2023-11-18T15:27:44;6.40;99.10
54202;DHT22;40108;53.152;5.844;2023-11-18T15:30:15;6.40;99.10
54202;DHT22;40108;53.152;5.844;2023-11-18T15:32:43;6.40;99.10
54202;DHT22;40108;53.152;5.844;2023-11-18T15:35:10;6.40;99.10
54202;DHT22;40108;53.152;5.844;2023-11-18T15:37:40;6.40;99.10
54202;DHT22;40108;53.152;5.844;2023-11-18T15:40:10;6.40;99.10
54202;DHT22;40108;53.152;5.844;2023-11-18T15:42:38;6.40;99.10
54202;DHT22;40108;53.152;5.844;2023-11-18T15:45:11;6.40;99.10
54202;DHT22;40108;53.152;5.844;2023-11-18T15:47:38;6.40;99.00
54202;DHT22;40108;53.152;5.844;2023-11-18T15:50:07;6.50;99.10
54202;DHT22;40108;53.152;5.844;2023-11-18T15:52:36;6.50;99.00
54202;DHT22;40108;53.152;5.844;2023-11-18T15:55:02;6.50;99.00
54202;DHT22;40108;53.152;5.844;2023-11-18T15:57:36;6.50;99.00
54202;DHT22;40108;53.152;5.844;2023-11-18T16:00:02;6.50;99.10
54202;DHT22;40108;53.152;5.844;2023-11-18T16:02:31;6.50;99.00
54202;DHT22;40108;53.152;5.844;2023-11-18T16:04:56;6.50;99.00
54202;DHT22;40108;53.152;5.844;2023-11-18T16:07:22;6.50;99.00
54202;DHT22;40108;53.152;5.844;2023-11-18T16:09:48;6.50;99.00
54202;DHT22;40108;53.152;5.844;2023-11-18T16:12:14;6.50;99.00
54202;DHT22;40108;53.152;5.844;2023-11-18T16:14:40;6.50;99.00
54202;DHT22;40108;53.152;5.844;2023-11-18T16:17:05;6.60;99.00